createdAt,value
2022-12-31T00:00:15.692Z,3.30
2022-12-31T00:02:43.124Z,3.30
2022-12-31T00:05:10.884Z,3.30
2022-12-31T00:10:05.164Z,3.30
2022-12-31T00:12:32.393Z,3.30
2022-12-31T00:14:59.585Z,3.30
2022-12-31T00:17:26.755Z,3.30
2022-12-31T00:19:53.998Z,3.20
2022-12-31T00:22:21.362Z,3.20
2022-12-31T00:24:48.587Z,3.20
2022-12-31T00:27:16.916Z,3.20
2022-12-31T00:29:44.183Z,3.10
2022-12-31T00:32:11.292Z,3.10
2022-12-31T00:34:38.496Z,3.10
2022-12-31T00:37:05.706Z,3.00
2022-12-31T00:39:32.856Z,3.00
2022-12-31T00:42:00.134Z,3.00
2022-12-31T00:44:27.305Z,3.00
2022-12-31T00:46:54.548Z,3.00
2022-12-31T00:49:21.871Z,3.10
2022-12-31T00:51:49.164Z,3.10
2022-12-31T00:54:16.433Z,3.00
2022-12-31T00:56:43.593Z,3.00
2022-12-31T00:59:10.831Z,3.00
2022-12-31T01:01:40.395Z,3.00
2022-12-31T01:04:14.397Z,2.90
2022-12-31T01:06:42.701Z,2.90
2022-12-31T01:09:11.733Z,2.90
2022-12-31T01:11:39.010Z,2.90
2022-12-31T01:14:11.488Z,2.90
2022-12-31T01:16:45.227Z,2.80
2022-12-31T01:19:15.537Z,2.70
2022-12-31T01:21:43.952Z,2.70
2022-12-31T01:24:12.245Z,2.70
2022-12-31T01:26:39.812Z,2.70
2022-12-31T01:29:10.449Z,2.70
2022-12-31T01:31:38.220Z,2.60
2022-12-31T01:34:06.454Z,2.60
2022-12-31T01:36:35.657Z,2.50
2022-12-31T01:39:05.809Z,2.50
2022-12-31T01:41:36.790Z,2.40
2022-12-31T01:44:24.028Z,2.40
2022-12-31T01:47:00.971Z,2.40
2022-12-31T01:50:06.517Z,2.30
2022-12-31T01:52:41.541Z,2.30
2022-12-31T01:55:27.738Z,2.30
2022-12-31T01:57:59.557Z,2.30
2022-12-31T02:00:26.773Z,2.20
2022-12-31T02:02:54.110Z,2.20
2022-12-31T02:05:33.580Z,2.20
2022-12-31T02:08:00.890Z,2.10
2022-12-31T02:10:28.108Z,2.10
2022-12-31T02:12:55.616Z,2.10
2022-12-31T02:15:45.854Z,2.10
2022-12-31T02:18:41.777Z,2.10
2022-12-31T02:21:11.806Z,2.00
2022-12-31T02:24:15.092Z,2.00
2022-12-31T02:27:06.953Z,1.90
2022-12-31T02:29:49.113Z,1.90
2022-12-31T02:32:23.249Z,1.80
2022-12-31T02:35:00.204Z,1.80
2022-12-31T02:37:30.564Z,1.80
2022-12-31T02:39:59.040Z,1.70
2022-12-31T02:42:26.347Z,1.70
2022-12-31T02:44:53.513Z,1.60
2022-12-31T02:47:39.332Z,1.60
2022-12-31T02:50:33.432Z,1.60
2022-12-31T02:53:22.729Z,1.50
2022-12-31T02:56:01.737Z,1.50
2022-12-31T02:59:12.028Z,1.60
2022-12-31T03:02:03.201Z,1.60
2022-12-31T03:04:32.863Z,1.70
2022-12-31T03:07:06.573Z,1.70
2022-12-31T03:09:35.152Z,1.70
2022-12-31T03:12:22.232Z,1.70
2022-12-31T03:14:49.414Z,1.80
2022-12-31T03:17:16.713Z,1.80
2022-12-31T03:20:02.683Z,1.80
2022-12-31T03:22:30.406Z,1.80
2022-12-31T03:25:23.337Z,1.80
2022-12-31T03:27:51.903Z,1.80
2022-12-31T03:30:21.143Z,1.80
2022-12-31T03:32:49.829Z,1.80
2022-12-31T03:35:20.465Z,1.80
2022-12-31T03:37:48.262Z,1.80
2022-12-31T03:40:16.412Z,1.80
2022-12-31T03:42:43.777Z,1.80
2022-12-31T03:45:12.806Z,1.70
2022-12-31T03:47:40.616Z,1.70
2022-12-31T03:50:11.182Z,1.70
2022-12-31T03:52:38.438Z,1.70
2022-12-31T03:55:06.727Z,1.70
2022-12-31T03:57:34.259Z,1.60
2022-12-31T04:00:01.472Z,1.60
2022-12-31T04:02:29.615Z,1.60
2022-12-31T04:04:56.956Z,1.60
2022-12-31T04:07:24.250Z,1.60
2022-12-31T04:09:51.406Z,1.60
2022-12-31T04:12:18.584Z,1.60
2022-12-31T04:14:45.783Z,1.60
2022-12-31T04:17:13.002Z,1.60
2022-12-31T04:19:40.266Z,1.60
2022-12-31T04:22:07.547Z,1.60
2022-12-31T04:24:34.729Z,1.60
2022-12-31T04:27:07.258Z,1.60
2022-12-31T04:29:35.709Z,1.50
2022-12-31T04:32:04.453Z,1.50
2022-12-31T04:34:31.893Z,1.60
2022-12-31T04:36:59.527Z,1.50
2022-12-31T04:39:27.258Z,1.60
2022-12-31T04:41:54.623Z,1.60
2022-12-31T04:44:22.178Z,1.50
2022-12-31T04:46:49.423Z,1.50
2022-12-31T04:49:16.621Z,1.50
2022-12-31T04:51:44.077Z,1.50
2022-12-31T04:54:11.530Z,1.40
2022-12-31T04:56:38.776Z,1.40
2022-12-31T04:59:06.179Z,1.40
2022-12-31T05:01:33.619Z,1.40
2022-12-31T05:04:00.953Z,1.40
2022-12-31T05:06:28.268Z,1.40
2022-12-31T05:08:55.971Z,1.40
2022-12-31T05:11:23.311Z,1.40
2022-12-31T05:13:50.478Z,1.40
2022-12-31T05:16:17.667Z,1.40
2022-12-31T05:18:44.982Z,1.40
2022-12-31T05:21:18.697Z,1.40
2022-12-31T05:23:45.820Z,1.40
2022-12-31T05:26:13.037Z,1.40
2022-12-31T05:28:40.309Z,1.40
2022-12-31T05:31:07.891Z,1.40
2022-12-31T05:33:35.138Z,1.40
2022-12-31T05:36:02.388Z,1.40
2022-12-31T05:38:29.566Z,1.40
2022-12-31T05:41:01.498Z,1.50
2022-12-31T05:43:29.080Z,1.40
2022-12-31T05:45:56.465Z,1.50
2022-12-31T05:48:23.944Z,1.40
2022-12-31T05:50:51.128Z,1.40
2022-12-31T05:53:18.719Z,1.50
2022-12-31T05:55:47.628Z,1.50
2022-12-31T05:58:16.428Z,1.40
2022-12-31T06:00:44.070Z,1.40
2022-12-31T06:03:11.516Z,1.50
2022-12-31T06:05:43.088Z,1.50
2022-12-31T06:08:12.259Z,1.50
2022-12-31T06:10:40.075Z,1.50
2022-12-31T06:13:07.862Z,1.60
2022-12-31T06:15:39.479Z,1.60
2022-12-31T06:18:07.013Z,1.70
2022-12-31T06:20:36.735Z,1.70
2022-12-31T06:23:04.133Z,1.80
2022-12-31T06:25:31.299Z,1.80
2022-12-31T06:27:58.481Z,1.90
2022-12-31T06:30:25.694Z,1.90
2022-12-31T06:32:52.789Z,1.90
2022-12-31T06:35:20.003Z,1.90
2022-12-31T06:37:47.279Z,1.90
2022-12-31T06:40:14.923Z,1.90
2022-12-31T06:42:42.885Z,1.90
2022-12-31T06:45:10.534Z,1.90
2022-12-31T06:47:37.780Z,1.90
2022-12-31T06:50:05.497Z,1.90
2022-12-31T06:52:32.656Z,2.00
2022-12-31T06:55:00.180Z,1.90
2022-12-31T06:57:28.012Z,2.00
2022-12-31T06:59:55.651Z,1.90
2022-12-31T07:02:25.750Z,2.00
2022-12-31T07:05:06.835Z,1.90
2022-12-31T07:07:58.926Z,1.90
2022-12-31T07:10:48.045Z,2.00
2022-12-31T07:13:59.533Z,2.00
2022-12-31T07:16:35.775Z,2.00
2022-12-31T07:19:23.299Z,2.00
2022-12-31T07:21:53.531Z,2.00
2022-12-31T07:24:21.025Z,2.00
2022-12-31T07:26:56.730Z,2.10
2022-12-31T07:29:39.446Z,2.10
2022-12-31T07:32:37.301Z,2.10
2022-12-31T07:35:22.428Z,2.10
2022-12-31T07:37:59.089Z,2.20
2022-12-31T07:41:05.626Z,2.20
2022-12-31T07:44:00.987Z,2.20
2022-12-31T07:46:57.286Z,2.20
2022-12-31T07:49:26.558Z,2.30
2022-12-31T07:51:54.498Z,2.40
2022-12-31T07:54:22.057Z,2.50
2022-12-31T07:56:50.728Z,2.50
2022-12-31T07:59:23.962Z,2.60
2022-12-31T08:02:29.255Z,2.60
2022-12-31T08:05:26.626Z,2.60
2022-12-31T08:08:09.922Z,2.70
2022-12-31T08:10:55.121Z,2.70
2022-12-31T08:13:22.328Z,2.80
2022-12-31T08:15:49.628Z,2.90
2022-12-31T08:18:17.102Z,2.90
2022-12-31T08:20:56.391Z,2.90
2022-12-31T08:23:35.269Z,2.90
2022-12-31T08:26:37.446Z,2.90
2022-12-31T08:29:24.731Z,3.00
2022-12-31T08:32:29.469Z,3.00
2022-12-31T08:35:34.978Z,3.00
2022-12-31T08:38:39.183Z,3.10
2022-12-31T08:41:43.465Z,3.20
2022-12-31T08:44:41.372Z,3.30
2022-12-31T08:47:42.485Z,3.40
2022-12-31T08:50:19.801Z,3.40
2022-12-31T08:52:48.465Z,3.50
2022-12-31T08:55:18.009Z,3.50
2022-12-31T08:58:08.326Z,3.50
2022-12-31T09:00:37.716Z,3.60
2022-12-31T09:03:25.981Z,3.60
2022-12-31T09:06:12.125Z,3.70
2022-12-31T09:08:56.387Z,3.80
2022-12-31T09:11:52.890Z,3.80
2022-12-31T09:14:31.931Z,3.90
2022-12-31T09:17:42.391Z,3.90
2022-12-31T09:20:41.832Z,3.90
2022-12-31T09:23:12.436Z,4.00
2022-12-31T09:25:52.761Z,4.00
2022-12-31T09:28:22.903Z,4.00
2022-12-31T09:31:16.848Z,4.00
2022-12-31T09:33:53.431Z,4.00
2022-12-31T09:36:34.674Z,4.00
2022-12-31T09:39:29.899Z,4.00
2022-12-31T09:42:31.981Z,4.00
2022-12-31T09:45:22.928Z,4.00
2022-12-31T09:48:13.780Z,4.00
2022-12-31T09:50:40.955Z,4.00
2022-12-31T09:53:16.924Z,4.10
2022-12-31T09:55:58.036Z,4.10
2022-12-31T09:58:32.909Z,4.10
2022-12-31T10:01:38.607Z,4.10
2022-12-31T10:04:24.287Z,4.10
2022-12-31T10:07:30.504Z,4.10
2022-12-31T10:10:09.397Z,4.20
2022-12-31T10:12:42.464Z,4.10
2022-12-31T10:15:46.903Z,4.10
2022-12-31T10:18:36.867Z,4.10
2022-12-31T10:21:39.244Z,4.10
2022-12-31T10:24:30.965Z,4.10
2022-12-31T10:27:14.489Z,4.10
2022-12-31T10:29:44.651Z,4.10
2022-12-31T10:32:31.316Z,4.10
2022-12-31T10:35:02.685Z,4.10
2022-12-31T10:37:41.745Z,4.10
2022-12-31T10:40:30.862Z,4.10
2022-12-31T10:43:19.325Z,4.10
2022-12-31T10:45:49.395Z,4.00
2022-12-31T10:49:00.836Z,4.00
2022-12-31T10:51:54.001Z,4.00
2022-12-31T10:54:42.335Z,3.90
2022-12-31T10:57:28.116Z,3.90
2022-12-31T11:00:20.662Z,3.90
2022-12-31T11:03:05.520Z,3.90
2022-12-31T11:05:51.135Z,3.80
2022-12-31T11:08:30.055Z,3.80
2022-12-31T11:11:13.772Z,3.80
2022-12-31T11:14:18.306Z,3.80
2022-12-31T11:17:06.698Z,3.80
2022-12-31T11:20:01.403Z,3.80
2022-12-31T11:22:45.483Z,3.70
2022-12-31T11:25:12.934Z,3.60
2022-12-31T11:28:01.540Z,3.60
2022-12-31T11:30:47.817Z,3.60
2022-12-31T11:33:50.593Z,3.60
2022-12-31T11:36:44.718Z,3.60
2022-12-31T11:39:42.726Z,3.60
2022-12-31T11:42:22.224Z,3.60
2022-12-31T11:45:00.466Z,3.60
2022-12-31T11:48:28.963Z,3.50
2022-12-31T11:51:16.971Z,3.60
2022-12-31T11:54:08.251Z,3.60
2022-12-31T11:56:42.154Z,3.60
2022-12-31T11:59:19.012Z,3.60
2022-12-31T12:01:54.913Z,3.60
2022-12-31T12:04:22.102Z,3.60
2022-12-31T12:06:49.246Z,3.60
2022-12-31T12:09:28.741Z,3.60
2022-12-31T12:12:04.782Z,3.60
2022-12-31T12:14:35.838Z,3.60
2022-12-31T12:17:06.643Z,3.60
2022-12-31T12:19:35.298Z,3.60
2022-12-31T12:22:34.509Z,3.60
2022-12-31T12:25:20.827Z,3.70
2022-12-31T12:27:48.372Z,3.60
2022-12-31T12:30:20.002Z,3.70
2022-12-31T12:32:59.879Z,3.60
2022-12-31T12:35:30.113Z,3.60
2022-12-31T12:38:13.624Z,3.60
2022-12-31T12:40:41.629Z,3.70
2022-12-31T12:43:27.316Z,3.60
2022-12-31T12:45:59.899Z,3.60
2022-12-31T12:48:42.057Z,3.60
2022-12-31T12:51:39.663Z,3.60
2022-12-31T12:54:25.020Z,3.70
2022-12-31T12:56:57.874Z,3.60
2022-12-31T12:59:49.877Z,3.60
2022-12-31T13:03:01.629Z,3.70
2022-12-31T13:06:05.265Z,3.70
2022-12-31T13:09:32.362Z,3.60
2022-12-31T13:12:17.730Z,3.70
2022-12-31T13:15:17.017Z,3.60
2022-12-31T13:18:02.591Z,3.70
2022-12-31T13:20:45.067Z,3.70
2022-12-31T13:23:32.564Z,3.70
2022-12-31T13:26:10.997Z,3.70
2022-12-31T13:28:42.541Z,3.70
2022-12-31T13:31:19.806Z,3.70
2022-12-31T13:33:55.987Z,3.70
2022-12-31T13:36:27.504Z,3.70
2022-12-31T13:39:01.708Z,3.70
2022-12-31T13:41:50.443Z,3.70
2022-12-31T13:44:29.079Z,3.70
2022-12-31T13:47:15.118Z,3.70
2022-12-31T13:50:02.885Z,3.70
2022-12-31T13:52:55.651Z,3.70
2022-12-31T13:55:44.989Z,3.70
2022-12-31T13:58:47.557Z,3.70
2022-12-31T14:01:56.311Z,3.70
2022-12-31T14:04:42.161Z,3.70
2022-12-31T14:07:18.360Z,3.70
2022-12-31T14:09:46.912Z,3.70
2022-12-31T14:12:23.260Z,3.70
2022-12-31T14:15:19.103Z,3.70
2022-12-31T14:18:07.888Z,3.80
2022-12-31T14:20:42.359Z,3.80
2022-12-31T14:23:27.157Z,3.80
2022-12-31T14:26:08.750Z,3.80
2022-12-31T14:28:49.630Z,3.70
2022-12-31T14:31:48.647Z,3.70
2022-12-31T14:34:41.122Z,3.80
2022-12-31T14:37:16.694Z,3.80
2022-12-31T14:40:01.709Z,3.80
2022-12-31T14:43:04.242Z,3.80
2022-12-31T14:45:55.404Z,3.80
2022-12-31T14:48:25.434Z,3.80
2022-12-31T14:50:52.942Z,3.80
2022-12-31T14:53:25.716Z,3.80
2022-12-31T14:55:58.833Z,3.80
2022-12-31T14:58:41.428Z,3.80
2022-12-31T15:01:22.768Z,3.80
2022-12-31T15:03:51.044Z,3.90
2022-12-31T15:06:24.047Z,3.80
2022-12-31T15:09:40.566Z,3.90
2022-12-31T15:12:15.639Z,3.90
2022-12-31T15:15:01.317Z,3.80
2022-12-31T15:17:41.566Z,3.90
2022-12-31T15:20:17.556Z,3.90
2022-12-31T15:22:50.096Z,3.90
2022-12-31T15:25:41.246Z,3.90
2022-12-31T15:28:28.579Z,3.90
2022-12-31T15:30:59.363Z,3.90
2022-12-31T15:33:41.974Z,3.90
2022-12-31T15:36:21.403Z,3.90
2022-12-31T15:38:49.816Z,3.90
2022-12-31T15:41:19.883Z,3.90
2022-12-31T15:44:10.972Z,3.90
2022-12-31T15:46:41.776Z,3.90
2022-12-31T15:49:23.754Z,3.90
2022-12-31T15:52:01.587Z,4.00
2022-12-31T15:54:44.819Z,4.00
2022-12-31T15:57:19.651Z,4.00
2022-12-31T15:59:47.201Z,4.00
2022-12-31T16:02:25.928Z,4.00
2022-12-31T16:04:55.103Z,4.00
2022-12-31T16:07:24.082Z,4.10
2022-12-31T16:09:56.459Z,4.10
2022-12-31T16:12:32.482Z,4.10
2022-12-31T16:15:00.838Z,4.10
2022-12-31T16:17:28.332Z,4.10
2022-12-31T16:19:56.984Z,4.10
2022-12-31T16:22:29.904Z,4.10
2022-12-31T16:27:48.662Z,4.20
2022-12-31T16:30:27.347Z,4.10
2022-12-31T16:32:59.014Z,4.20
2022-12-31T16:35:33.493Z,4.10
2022-12-31T16:38:17.155Z,4.10
2022-12-31T16:41:02.736Z,4.10
2022-12-31T16:43:43.901Z,4.10
2022-12-31T16:46:28.199Z,4.10
2022-12-31T16:49:19.111Z,4.10
2022-12-31T16:51:46.397Z,4.10
2022-12-31T16:54:28.306Z,4.10
2022-12-31T16:56:56.483Z,4.10
2022-12-31T16:59:44.296Z,4.10
2022-12-31T17:02:20.470Z,4.20
2022-12-31T17:04:55.733Z,4.20
2022-12-31T17:07:43.132Z,4.10
2022-12-31T17:10:16.582Z,4.20
2022-12-31T17:13:28.844Z,4.20
2022-12-31T17:15:45.916Z,4.20
2022-12-31T17:18:20.253Z,4.20
2022-12-31T17:20:48.852Z,4.10
2022-12-31T17:23:34.255Z,4.10
2022-12-31T17:26:13.143Z,4.10
2022-12-31T17:28:50.073Z,4.10
2022-12-31T17:31:34.154Z,4.10
2022-12-31T17:34:13.212Z,4.10
2022-12-31T17:37:01.527Z,4.10
2022-12-31T17:40:48.799Z,4.10
2022-12-31T17:42:53.275Z,4.20
2022-12-31T17:45:21.807Z,4.20
2022-12-31T17:47:52.639Z,4.20
2022-12-31T17:50:21.444Z,4.20
2022-12-31T17:52:48.953Z,4.20
2022-12-31T17:55:16.599Z,4.20
2022-12-31T17:58:05.023Z,4.20
2022-12-31T18:00:35.951Z,4.20
2022-12-31T18:03:03.073Z,4.20
2022-12-31T18:05:30.205Z,4.20
2022-12-31T18:07:57.364Z,4.20
2022-12-31T18:10:26.362Z,4.30
2022-12-31T18:12:53.759Z,4.30
2022-12-31T18:15:23.406Z,4.30
2022-12-31T18:17:51.069Z,4.30
2022-12-31T18:20:18.509Z,4.30
2022-12-31T18:22:45.998Z,4.30
2022-12-31T18:25:24.180Z,4.30
2022-12-31T18:27:52.530Z,4.30
2022-12-31T18:30:19.911Z,4.30
2022-12-31T18:32:47.527Z,4.40
2022-12-31T18:35:57.658Z,4.30
2022-12-31T18:38:16.447Z,4.30
2022-12-31T18:40:49.313Z,4.30
2022-12-31T18:43:18.132Z,4.30
2022-12-31T18:45:46.595Z,4.40
2022-12-31T18:48:13.878Z,4.40
2022-12-31T18:50:41.541Z,4.40
2022-12-31T18:53:18.642Z,4.40
2022-12-31T18:55:54.600Z,4.40
2022-12-31T18:58:22.046Z,4.40
2022-12-31T19:00:50.533Z,4.40
2022-12-31T19:03:20.696Z,4.30
2022-12-31T19:05:50.711Z,4.40
2022-12-31T19:08:18.400Z,4.40
2022-12-31T19:10:45.714Z,4.40
2022-12-31T19:13:14.424Z,4.40
2022-12-31T19:15:44.602Z,4.40
2022-12-31T19:18:12.115Z,4.40
2022-12-31T19:20:41.487Z,4.40
2022-12-31T19:23:18.204Z,4.50
2022-12-31T19:25:47.192Z,4.50
2022-12-31T19:28:23.152Z,4.50
2022-12-31T19:30:50.252Z,4.60
2022-12-31T19:33:18.588Z,4.60
2022-12-31T19:35:46.720Z,4.60
2022-12-31T19:38:29.064Z,4.60
2022-12-31T19:40:56.203Z,4.60
2022-12-31T19:43:24.023Z,4.60
2022-12-31T19:45:52.835Z,4.60
2022-12-31T19:48:28.541Z,4.70
2022-12-31T19:50:59.660Z,4.70
2022-12-31T19:53:29.053Z,4.60
2022-12-31T19:55:56.654Z,4.70
2022-12-31T19:58:27.338Z,4.70
2022-12-31T20:01:02.985Z,4.80
2022-12-31T20:03:33.087Z,4.80
2022-12-31T20:06:09.602Z,4.80
2022-12-31T20:08:38.816Z,4.80
2022-12-31T20:11:24.488Z,4.90
2022-12-31T20:13:54.052Z,4.90
2022-12-31T20:16:24.042Z,5.00
2022-12-31T20:18:51.921Z,5.00
2022-12-31T20:21:22.796Z,5.00
2022-12-31T20:23:51.088Z,5.00
2022-12-31T20:26:19.709Z,5.10
2022-12-31T20:28:47.286Z,5.10
2022-12-31T20:31:23.751Z,5.10
2022-12-31T20:33:51.163Z,5.10
2022-12-31T20:36:18.522Z,5.10
2022-12-31T20:38:46.571Z,5.10
2022-12-31T20:41:16.357Z,5.20
2022-12-31T20:43:43.798Z,5.30
2022-12-31T20:46:15.729Z,5.30
2022-12-31T20:48:44.638Z,5.30
2022-12-31T20:51:13.243Z,5.30
2022-12-31T20:53:45.354Z,5.40
2022-12-31T20:56:12.631Z,5.40
2022-12-31T20:58:39.769Z,5.50
2022-12-31T21:01:09.564Z,5.50
2022-12-31T21:06:26.046Z,5.50
2022-12-31T21:08:54.614Z,5.60
2022-12-31T21:11:40.089Z,5.60
2022-12-31T21:14:07.353Z,5.60
2022-12-31T21:16:34.984Z,5.60
2022-12-31T21:19:02.290Z,5.60
2022-12-31T21:21:29.511Z,5.60
2022-12-31T21:23:56.807Z,5.60
2022-12-31T21:26:24.031Z,5.60
2022-12-31T21:28:51.151Z,5.70
2022-12-31T21:31:18.438Z,5.70
2022-12-31T21:33:47.262Z,5.80
2022-12-31T21:36:15.923Z,5.80
2022-12-31T21:38:43.961Z,5.80
2022-12-31T21:41:33.540Z,5.90
2022-12-31T21:44:01.732Z,5.90
2022-12-31T21:46:29.503Z,6.00
2022-12-31T21:49:00.733Z,6.00
2022-12-31T21:51:28.777Z,6.10
2022-12-31T21:53:56.348Z,6.10
2022-12-31T21:56:24.020Z,6.10
2022-12-31T21:59:17.726Z,6.10
2022-12-31T22:02:03.402Z,6.20
2022-12-31T22:07:18.473Z,6.30
2022-12-31T22:09:45.653Z,6.30
2022-12-31T22:12:12.840Z,6.30
2022-12-31T22:15:14.671Z,6.40
2022-12-31T22:17:27.201Z,6.40
2022-12-31T22:20:25.384Z,6.40
2022-12-31T22:22:41.502Z,6.40
2022-12-31T22:25:09.190Z,6.40
2022-12-31T22:27:36.209Z,6.40
2022-12-31T22:30:03.390Z,6.40
2022-12-31T22:32:30.619Z,6.40
2022-12-31T22:34:57.737Z,6.40
2022-12-31T22:37:55.502Z,6.50
2022-12-31T22:40:12.271Z,6.50
2022-12-31T22:42:39.416Z,6.40
2022-12-31T22:45:07.887Z,6.50
2022-12-31T22:47:35.329Z,6.50
2022-12-31T22:50:02.442Z,6.50
2022-12-31T22:52:29.667Z,6.50
2022-12-31T22:54:56.730Z,6.50
2022-12-31T22:57:23.964Z,6.50
2022-12-31T22:59:52.176Z,6.60
2022-12-31T23:02:19.362Z,6.60
2022-12-31T23:04:46.519Z,6.70
2022-12-31T23:07:13.621Z,6.70
2022-12-31T23:09:59.267Z,6.70
2022-12-31T23:12:26.429Z,6.70
2022-12-31T23:15:11.849Z,6.80
2022-12-31T23:17:57.494Z,6.80
2022-12-31T23:20:44.348Z,6.90
2022-12-31T23:23:17.847Z,6.90
2022-12-31T23:25:49.071Z,6.90
2022-12-31T23:28:21.818Z,6.90
2022-12-31T23:30:51.666Z,7.00
2022-12-31T23:33:24.478Z,7.00
2022-12-31T23:36:01.414Z,7.00
2022-12-31T23:38:28.572Z,7.10
2022-12-31T23:40:55.687Z,7.10
2022-12-31T23:43:23.180Z,7.10
2022-12-31T23:45:51.383Z,7.20
2022-12-31T23:48:18.644Z,7.20
2022-12-31T23:50:52.963Z,7.20
2022-12-31T23:53:22.094Z,7.30
2022-12-31T23:55:49.261Z,7.30
2022-12-31T23:58:17.070Z,7.40
